createdAt,value
2022-10-05T00:03:15.105Z,16.00
2022-10-05T00:06:37.043Z,16.00
2022-10-05T00:10:00.206Z,15.90
2022-10-05T00:13:28.009Z,16.00
2022-10-05T00:16:50.774Z,15.90
2022-10-05T00:20:24.781Z,15.90
2022-10-05T00:23:46.856Z,15.80
2022-10-05T00:27:20.898Z,15.70
2022-10-05T00:30:42.893Z,15.70
2022-10-05T00:34:04.877Z,15.70
2022-10-05T00:37:26.905Z,15.70
2022-10-05T00:40:52.470Z,15.80
2022-10-05T00:44:14.353Z,15.90
2022-10-05T00:47:57.189Z,15.90
2022-10-05T00:51:38.047Z,16.00
2022-10-05T00:55:22.316Z,16.20
2022-10-05T00:58:55.270Z,16.30
2022-10-05T01:02:25.939Z,16.30
2022-10-05T01:06:22.698Z,16.40
2022-10-05T01:09:54.761Z,16.40
2022-10-05T01:13:22.747Z,16.40
2022-10-05T01:17:05.844Z,16.30
2022-10-05T01:20:44.893Z,16.20
2022-10-05T01:24:32.070Z,16.20
2022-10-05T01:28:17.308Z,16.10
2022-10-05T01:32:00.119Z,16.10
2022-10-05T01:35:34.688Z,16.10
2022-10-05T01:39:24.079Z,16.10
2022-10-05T01:42:45.992Z,16.00
2022-10-05T01:46:20.071Z,15.90
2022-10-05T01:49:55.541Z,15.80
2022-10-05T01:53:38.957Z,15.80
2022-10-05T01:57:17.671Z,15.80
2022-10-05T02:00:59.890Z,15.70
2022-10-05T02:05:01.430Z,15.70
2022-10-05T02:08:52.573Z,15.80
2022-10-05T02:12:22.310Z,15.70
2022-10-05T02:15:49.667Z,15.80
2022-10-05T02:19:21.033Z,15.80
2022-10-05T02:22:48.081Z,15.80
2022-10-05T02:26:12.356Z,15.90
2022-10-05T02:29:39.247Z,15.90
2022-10-05T02:33:08.474Z,16.00
2022-10-05T02:36:35.339Z,16.00
2022-10-05T02:40:26.594Z,16.00
2022-10-05T02:43:51.652Z,16.00
2022-10-05T02:47:37.762Z,16.00
2022-10-05T02:51:23.701Z,16.00
2022-10-05T02:54:54.353Z,16.10
2022-10-05T02:58:29.513Z,16.00
2022-10-05T03:01:55.728Z,16.00
2022-10-05T03:05:24.069Z,16.00
2022-10-05T03:09:08.269Z,16.00
2022-10-05T03:12:50.433Z,16.00
2022-10-05T03:17:06.084Z,16.00
2022-10-05T03:20:51.568Z,16.10
2022-10-05T03:24:42.062Z,16.10
2022-10-05T03:28:53.953Z,16.10
2022-10-05T03:32:38.382Z,16.10
2022-10-05T03:36:15.530Z,16.20
2022-10-05T03:39:52.176Z,16.20
2022-10-05T03:43:42.337Z,16.20
2022-10-05T03:47:12.830Z,16.20
2022-10-05T03:51:16.782Z,16.20
2022-10-05T03:54:50.381Z,16.20
2022-10-05T03:58:38.840Z,16.20
2022-10-05T04:02:06.953Z,16.30
2022-10-05T04:05:55.347Z,16.20
2022-10-05T04:09:27.030Z,16.30
2022-10-05T04:12:54.962Z,16.30
2022-10-05T04:16:28.436Z,16.20
2022-10-05T04:20:04.591Z,16.20
2022-10-05T04:23:49.717Z,16.20
2022-10-05T04:27:17.818Z,16.20
2022-10-05T04:30:44.236Z,16.20
2022-10-05T04:34:40.038Z,16.10
2022-10-05T04:38:27.345Z,16.10
2022-10-05T04:42:28.877Z,16.10
2022-10-05T04:46:08.075Z,16.20
2022-10-05T04:50:15.330Z,16.10
2022-10-05T04:54:03.037Z,16.10
2022-10-05T04:57:31.991Z,16.10
2022-10-05T05:01:28.249Z,16.20
2022-10-05T05:06:15.364Z,16.20
2022-10-05T05:09:52.026Z,16.20
2022-10-05T05:13:41.455Z,16.20
2022-10-05T05:17:38.652Z,16.10
2022-10-05T05:21:10.187Z,16.20
2022-10-05T05:24:50.379Z,16.20
2022-10-05T05:28:18.082Z,16.20
2022-10-05T05:31:49.038Z,16.20
2022-10-05T05:35:33.703Z,16.20
2022-10-05T05:39:23.758Z,16.20
2022-10-05T05:42:57.304Z,16.30
2022-10-05T05:47:11.291Z,16.30
2022-10-05T05:50:55.076Z,16.40
2022-10-05T05:54:50.183Z,16.30
2022-10-05T05:58:22.940Z,16.50
2022-10-05T06:01:59.709Z,16.50
2022-10-05T06:05:22.411Z,16.50
2022-10-05T06:08:56.711Z,16.50
2022-10-05T06:12:34.631Z,16.60
2022-10-05T06:16:29.745Z,16.70
2022-10-05T06:20:02.440Z,16.70
2022-10-05T06:23:52.492Z,16.80
2022-10-05T06:27:56.231Z,16.80
2022-10-05T06:31:21.397Z,16.90
2022-10-05T06:34:53.290Z,16.90
2022-10-05T06:38:50.178Z,17.00
2022-10-05T06:42:31.899Z,17.10
2022-10-05T06:46:46.083Z,17.10
2022-10-05T06:50:42.530Z,17.30
2022-10-05T06:54:56.677Z,17.50
2022-10-05T06:58:43.410Z,17.90
2022-10-05T07:02:29.651Z,18.30
2022-10-05T07:06:13.018Z,18.70
2022-10-05T07:09:47.371Z,19.50
2022-10-05T07:13:33.723Z,20.60
2022-10-05T07:17:08.487Z,21.40
2022-10-05T07:20:57.105Z,21.90
2022-10-05T07:24:30.603Z,21.70
2022-10-05T07:28:18.348Z,21.70
2022-10-05T07:32:05.544Z,21.50
2022-10-05T07:36:11.000Z,21.50
2022-10-05T07:39:59.788Z,21.60
2022-10-05T07:44:07.754Z,21.10
2022-10-05T07:47:39.483Z,21.00
2022-10-05T07:51:21.663Z,20.90
2022-10-05T07:55:20.861Z,20.90
2022-10-05T07:58:51.869Z,20.90
2022-10-05T08:02:58.525Z,20.70
2022-10-05T08:06:41.364Z,21.00
2022-10-05T08:10:34.074Z,21.20
2022-10-05T08:14:20.559Z,21.60
2022-10-05T08:17:51.149Z,21.70
2022-10-05T08:21:16.425Z,21.80
2022-10-05T08:24:55.565Z,21.80
2022-10-05T08:28:32.501Z,22.10
2022-10-05T08:31:58.886Z,22.50
2022-10-05T08:35:45.049Z,22.90
2022-10-05T08:39:18.318Z,22.90
2022-10-05T08:42:55.962Z,22.60
2022-10-05T08:46:42.655Z,22.50
2022-10-05T08:50:07.693Z,22.20
2022-10-05T08:53:41.783Z,22.10
2022-10-05T08:57:32.078Z,22.10
2022-10-05T09:01:06.489Z,22.30
2022-10-05T09:04:41.179Z,22.30
2022-10-05T09:08:40.478Z,22.60
2022-10-05T09:12:33.678Z,23.00
2022-10-05T09:16:33.629Z,22.70
2022-10-05T09:20:29.359Z,22.50
2022-10-05T09:24:10.684Z,22.30
2022-10-05T09:27:38.313Z,22.60
2022-10-05T09:31:24.613Z,22.60
2022-10-05T09:35:15.959Z,22.90
2022-10-05T09:38:56.109Z,23.20
2022-10-05T09:42:47.868Z,23.50
2022-10-05T09:46:47.891Z,23.90
2022-10-05T09:50:44.454Z,24.50
2022-10-05T09:54:13.107Z,25.30
2022-10-05T09:58:12.865Z,25.40
2022-10-05T10:01:43.908Z,24.90
2022-10-05T10:05:22.875Z,25.20
2022-10-05T10:09:21.879Z,26.10
2022-10-05T10:13:08.310Z,26.30
2022-10-05T10:16:54.674Z,26.50
2022-10-05T10:20:58.525Z,26.60
2022-10-05T10:24:38.519Z,27.30
2022-10-05T10:28:22.102Z,27.90
2022-10-05T10:31:50.546Z,28.20
2022-10-05T10:35:15.852Z,28.00
2022-10-05T10:38:55.812Z,27.10
2022-10-05T10:42:20.505Z,26.40
2022-10-05T10:46:13.848Z,26.80
2022-10-05T10:49:54.510Z,26.50
2022-10-05T10:53:34.768Z,26.60
2022-10-05T10:57:10.110Z,26.80
2022-10-05T11:00:54.654Z,26.60
2022-10-05T11:04:35.355Z,26.70
2022-10-05T11:08:16.238Z,27.50
2022-10-05T11:12:12.980Z,27.40
2022-10-05T11:20:07.131Z,25.90
2022-10-05T11:23:50.930Z,25.10
2022-10-05T11:27:50.850Z,24.20
2022-10-05T11:31:37.489Z,23.80
2022-10-05T11:35:17.551Z,23.70
2022-10-05T11:39:04.405Z,23.90
2022-10-05T11:42:59.162Z,24.10
2022-10-05T11:46:21.219Z,24.30
2022-10-05T11:49:43.205Z,24.40
2022-10-05T11:53:38.493Z,24.30
2022-10-05T11:57:09.124Z,24.30
2022-10-05T12:00:34.534Z,24.20
2022-10-05T12:04:11.585Z,24.20
2022-10-05T12:08:01.554Z,24.10
2022-10-05T12:11:29.343Z,24.40
2022-10-05T12:15:07.612Z,24.50
2022-10-05T12:18:39.346Z,24.60
2022-10-05T12:22:17.158Z,24.90
2022-10-05T12:26:01.988Z,25.20
2022-10-05T12:29:49.695Z,25.20
2022-10-05T12:33:31.084Z,24.90
2022-10-05T12:37:14.418Z,24.80
2022-10-05T12:40:59.083Z,24.90
2022-10-05T12:45:08.590Z,25.00
2022-10-05T12:48:57.826Z,25.20
2022-10-05T12:52:23.157Z,25.50
2022-10-05T12:56:23.754Z,25.40
2022-10-05T13:00:02.138Z,24.80
2022-10-05T13:03:58.577Z,24.60
2022-10-05T13:07:35.230Z,24.80
2022-10-05T13:11:05.598Z,25.00
2022-10-05T13:14:55.406Z,25.30
2022-10-05T13:18:31.575Z,24.90
2022-10-05T13:22:22.778Z,24.80
2022-10-05T13:26:01.813Z,24.80
2022-10-05T13:29:54.475Z,24.60
2022-10-05T13:33:20.737Z,24.40
2022-10-05T13:37:15.628Z,24.60
2022-10-05T13:41:05.607Z,24.90
2022-10-05T13:44:59.396Z,24.90
2022-10-05T13:49:04.228Z,24.60
2022-10-05T13:52:26.211Z,25.00
2022-10-05T13:56:04.928Z,25.20
2022-10-05T13:59:43.364Z,25.50
2022-10-05T14:03:43.553Z,25.60
2022-10-05T14:07:38.641Z,25.50
2022-10-05T14:11:21.441Z,25.50
2022-10-05T14:14:54.972Z,24.80
2022-10-05T14:18:24.814Z,24.60
2022-10-05T14:22:00.629Z,24.70
2022-10-05T14:25:22.869Z,24.60
2022-10-05T14:29:01.105Z,24.50
2022-10-05T14:32:24.618Z,24.40
2022-10-05T14:35:49.294Z,24.30
2022-10-05T14:39:13.304Z,24.30
2022-10-05T14:42:46.969Z,24.40
2022-10-05T14:46:28.791Z,24.00
2022-10-05T14:50:17.188Z,23.90
2022-10-05T14:53:56.674Z,23.60
2022-10-05T14:57:32.151Z,23.30
2022-10-05T15:01:00.742Z,23.10
2022-10-05T15:04:45.673Z,23.00
2022-10-05T15:08:36.118Z,22.90
2022-10-05T15:12:01.987Z,22.80
2022-10-05T15:15:34.948Z,22.50
2022-10-05T15:19:40.499Z,22.30
2022-10-05T15:23:24.645Z,22.30
2022-10-05T15:27:02.232Z,22.30
2022-10-05T15:30:24.629Z,22.10
2022-10-05T15:34:29.494Z,22.10
2022-10-05T15:38:02.898Z,21.90
2022-10-05T15:41:33.609Z,21.80
2022-10-05T15:45:24.959Z,21.70
2022-10-05T15:49:01.876Z,21.60
2022-10-05T15:53:05.531Z,21.50
2022-10-05T15:56:38.566Z,21.40
2022-10-05T16:00:13.969Z,21.40
2022-10-05T16:04:01.174Z,21.30
2022-10-05T16:07:49.632Z,21.20
2022-10-05T16:11:25.860Z,21.10
2022-10-05T16:15:18.806Z,21.00
2022-10-05T16:19:29.614Z,20.90
2022-10-05T16:23:28.228Z,20.80
2022-10-05T16:27:17.312Z,20.60
2022-10-05T16:30:58.866Z,20.40
2022-10-05T16:34:54.372Z,20.30
2022-10-05T16:38:35.135Z,20.30
2022-10-05T16:42:19.955Z,20.20
2022-10-05T16:46:10.050Z,20.30
2022-10-05T16:50:04.757Z,20.20
2022-10-05T16:53:47.024Z,20.20
2022-10-05T16:57:21.240Z,20.30
2022-10-05T17:01:08.480Z,20.30
2022-10-05T17:04:52.347Z,20.30
2022-10-05T17:08:26.747Z,20.20
2022-10-05T17:11:48.940Z,20.10
2022-10-05T17:16:05.187Z,20.10
2022-10-05T17:19:33.071Z,20.10
2022-10-05T17:23:13.343Z,20.10
2022-10-05T17:27:22.281Z,20.00
2022-10-05T17:31:02.124Z,20.00
2022-10-05T17:35:22.389Z,19.90
2022-10-05T17:48:04.184Z,19.70
2022-10-05T17:51:47.903Z,19.60
2022-10-05T17:55:27.497Z,19.50
2022-10-05T17:58:55.465Z,19.40
2022-10-05T18:02:36.952Z,19.30
2022-10-05T18:06:24.584Z,19.10
2022-10-05T18:09:58.336Z,18.90
2022-10-05T18:13:37.253Z,18.80
2022-10-05T18:17:11.326Z,18.70
2022-10-05T18:20:35.590Z,18.50
2022-10-05T18:24:14.413Z,18.40
2022-10-05T18:27:50.151Z,18.20
2022-10-05T18:31:39.676Z,18.10
2022-10-05T18:35:29.870Z,18.00
2022-10-05T18:39:39.400Z,17.90
2022-10-05T18:43:25.192Z,17.80
2022-10-05T18:47:02.100Z,17.70
2022-10-05T18:50:40.940Z,17.60
2022-10-05T18:54:25.633Z,17.60
2022-10-05T18:58:06.739Z,17.50
2022-10-05T19:02:11.261Z,17.40
2022-10-05T19:05:58.216Z,17.30
2022-10-05T19:09:45.421Z,17.20
2022-10-05T19:13:11.819Z,17.10
2022-10-05T19:17:04.644Z,17.00
2022-10-05T19:20:54.093Z,16.90
2022-10-05T19:24:49.931Z,16.80
2022-10-05T19:28:34.639Z,16.80
2022-10-05T19:32:14.213Z,16.80
2022-10-05T19:36:01.305Z,16.70
2022-10-05T19:39:41.954Z,16.70
2022-10-05T19:43:13.228Z,16.60
2022-10-05T19:46:58.946Z,16.60
2022-10-05T19:50:21.254Z,16.50
2022-10-05T19:53:52.366Z,16.50
2022-10-05T19:57:18.281Z,16.50
2022-10-05T20:00:42.735Z,16.40
2022-10-05T20:04:05.509Z,16.40
2022-10-05T20:07:28.593Z,16.40
2022-10-05T20:11:11.798Z,16.30
2022-10-05T20:14:58.567Z,16.30
2022-10-05T20:19:06.811Z,16.30
2022-10-05T20:22:36.205Z,16.20
2022-10-05T20:26:17.094Z,16.10
2022-10-05T20:29:42.408Z,16.10
2022-10-05T20:33:10.551Z,16.10
2022-10-05T20:36:32.918Z,16.00
2022-10-05T20:39:55.560Z,16.00
2022-10-05T20:43:17.928Z,16.00
2022-10-05T20:46:41.700Z,16.00
2022-10-05T20:50:12.104Z,15.90
2022-10-05T20:53:34.608Z,15.90
2022-10-05T20:56:57.030Z,15.80
2022-10-05T21:00:25.941Z,15.70
2022-10-05T21:03:48.851Z,15.70
2022-10-05T21:07:12.053Z,15.60
2022-10-05T21:10:36.281Z,15.60
2022-10-05T21:14:02.086Z,15.50
2022-10-05T21:17:27.413Z,15.40
2022-10-05T21:20:50.734Z,15.40
2022-10-05T21:24:14.969Z,15.30
2022-10-05T21:27:37.596Z,15.20
2022-10-05T21:31:02.742Z,15.10
2022-10-05T21:34:25.061Z,15.10
2022-10-05T21:37:47.449Z,15.00
2022-10-05T21:41:09.731Z,14.90
2022-10-05T21:44:31.835Z,14.90
2022-10-05T21:47:53.980Z,14.80
2022-10-05T21:51:19.383Z,14.80
2022-10-05T21:54:41.572Z,14.80
2022-10-05T21:58:04.591Z,14.80
2022-10-05T22:01:27.196Z,14.70
2022-10-05T22:04:49.450Z,14.70
2022-10-05T22:08:29.574Z,14.60
2022-10-05T22:11:51.939Z,14.60
2022-10-05T22:15:14.018Z,14.50
2022-10-05T22:18:36.374Z,14.50
2022-10-05T22:21:58.507Z,14.50
2022-10-05T22:25:21.969Z,14.50
2022-10-05T22:28:45.808Z,14.50
2022-10-05T22:32:08.084Z,14.50
2022-10-05T22:35:32.664Z,14.50
2022-10-05T22:38:54.627Z,14.40
2022-10-05T22:42:16.658Z,14.40
2022-10-05T22:45:38.838Z,14.40
2022-10-05T22:49:01.163Z,14.30
2022-10-05T22:52:23.272Z,14.20
2022-10-05T22:55:45.318Z,14.10
2022-10-05T22:59:07.356Z,14.10
2022-10-05T23:02:29.412Z,14.10
2022-10-05T23:06:05.743Z,14.10
2022-10-05T23:09:27.893Z,14.00
2022-10-05T23:13:00.733Z,14.00
2022-10-05T23:16:26.206Z,13.90
2022-10-05T23:19:48.244Z,13.90
2022-10-05T23:23:10.504Z,13.80
2022-10-05T23:26:33.140Z,13.80
2022-10-05T23:29:55.089Z,13.70
2022-10-05T23:33:17.098Z,13.60
2022-10-05T23:36:39.169Z,13.60
2022-10-05T23:40:01.113Z,13.60
2022-10-05T23:43:23.338Z,13.70
2022-10-05T23:46:45.297Z,13.70
2022-10-05T23:50:08.726Z,13.70
2022-10-05T23:53:30.678Z,13.60
2022-10-05T23:56:52.637Z,13.60
